sensor_id;sensor_type;location;lat;lon;timestamp;P1;durP1;ratioP1;P2;durP2;ratioP2
49296;SDS011;35163;48.878;18.040;2023-06-05T00:00:02;14.65;;;5.32;;
49296;SDS011;35163;48.878;18.040;2023-06-05T00:02:33;11.45;;;5.75;;
49296;SDS011;35163;48.878;18.040;2023-06-05T00:05:00;11.90;;;5.95;;
49296;SDS011;35163;48.878;18.040;2023-06-05T00:07:28;12.55;;;5.80;;
49296;SDS011;35163;48.878;18.040;2023-06-05T00:09:54;13.45;;;5.88;;
49296;SDS011;35163;48.878;18.040;2023-06-05T00:12:21;11.65;;;5.60;;
49296;SDS011;35163;48.878;18.040;2023-06-05T00:14:48;13.38;;;6.13;;
49296;SDS011;35163;48.878;18.040;2023-06-05T00:17:14;12.70;;;6.00;;
49296;SDS011;35163;48.878;18.040;2023-06-05T00:19:41;13.80;;;5.80;;
49296;SDS011;35163;48.878;18.040;2023-06-05T00:22:08;12.95;;;5.75;;
49296;SDS011;35163;48.878;18.040;2023-06-05T00:24:35;14.57;;;6.05;;
49296;SDS011;35163;48.878;18.040;2023-06-05T00:27:01;13.80;;;5.88;;
49296;SDS011;35163;48.878;18.040;2023-06-05T00:29:28;12.75;;;6.03;;
49296;SDS011;35163;48.878;18.040;2023-06-05T00:31:55;11.02;;;6.30;;
49296;SDS011;35163;48.878;18.040;2023-06-05T00:34:21;14.45;;;6.40;;
49296;SDS011;35163;48.878;18.040;2023-06-05T00:36:48;10.52;;;5.90;;
49296;SDS011;35163;48.878;18.040;2023-06-05T00:39:18;14.10;;;6.07;;
49296;SDS011;35163;48.878;18.040;2023-06-05T00:41:45;13.50;;;6.38;;
49296;SDS011;35163;48.878;18.040;2023-06-05T00:44:12;16.23;;;6.70;;
49296;SDS011;35163;48.878;18.040;2023-06-05T00:46:38;13.38;;;6.45;;
49296;SDS011;35163;48.878;18.040;2023-06-05T00:49:06;14.75;;;6.00;;
49296;SDS011;35163;48.878;18.040;2023-06-05T00:51:34;12.05;;;5.78;;
49296;SDS011;35163;48.878;18.040;2023-06-05T00:54:02;13.02;;;6.45;;
49296;SDS011;35163;48.878;18.040;2023-06-05T00:56:30;13.70;;;6.88;;
49296;SDS011;35163;48.878;18.040;2023-06-05T00:59:02;12.57;;;6.15;;
49296;SDS011;35163;48.878;18.040;2023-06-05T01:01:29;10.88;;;5.45;;
49296;SDS011;35163;48.878;18.040;2023-06-05T01:03:56;13.02;;;5.75;;
49296;SDS011;35163;48.878;18.040;2023-06-05T01:06:29;14.85;;;6.25;;
49296;SDS011;35163;48.878;18.040;2023-06-05T01:09:01;11.93;;;6.22;;
49296;SDS011;35163;48.878;18.040;2023-06-05T01:11:31;12.15;;;6.40;;
49296;SDS011;35163;48.878;18.040;2023-06-05T01:16:51;13.50;;;6.72;;
49296;SDS011;35163;48.878;18.040;2023-06-05T01:19:23;13.82;;;6.88;;
49296;SDS011;35163;48.878;18.040;2023-06-05T01:21:55;12.93;;;6.38;;
49296;SDS011;35163;48.878;18.040;2023-06-05T01:24:22;13.68;;;6.35;;
49296;SDS011;35163;48.878;18.040;2023-06-05T01:29:37;11.43;;;6.15;;
49296;SDS011;35163;48.878;18.040;2023-06-05T01:32:15;12.25;;;6.18;;
49296;SDS011;35163;48.878;18.040;2023-06-05T01:35:06;16.58;;;6.47;;
49296;SDS011;35163;48.878;18.040;2023-06-05T01:37:36;13.15;;;6.90;;
49296;SDS011;35163;48.878;18.040;2023-06-05T01:40:07;12.02;;;6.57;;
49296;SDS011;35163;48.878;18.040;2023-06-05T01:42:38;12.60;;;7.07;;
49296;SDS011;35163;48.878;18.040;2023-06-05T01:45:06;15.98;;;6.20;;
49296;SDS011;35163;48.878;18.040;2023-06-05T01:47:35;14.43;;;6.45;;
49296;SDS011;35163;48.878;18.040;2023-06-05T01:50:04;13.70;;;6.43;;
49296;SDS011;35163;48.878;18.040;2023-06-05T01:52:32;14.23;;;6.70;;
49296;SDS011;35163;48.878;18.040;2023-06-05T01:55:03;11.85;;;6.68;;
49296;SDS011;35163;48.878;18.040;2023-06-05T01:57:31;16.60;;;6.80;;
49296;SDS011;35163;48.878;18.040;2023-06-05T02:00:00;17.70;;;6.32;;
49296;SDS011;35163;48.878;18.040;2023-06-05T02:02:33;10.90;;;6.10;;
49296;SDS011;35163;48.878;18.040;2023-06-05T02:05:02;12.82;;;6.55;;
49296;SDS011;35163;48.878;18.040;2023-06-05T02:07:30;12.77;;;6.60;;
49296;SDS011;35163;48.878;18.040;2023-06-05T02:09:59;14.98;;;6.45;;
49296;SDS011;35163;48.878;18.040;2023-06-05T02:12:27;15.50;;;6.70;;
49296;SDS011;35163;48.878;18.040;2023-06-05T02:14:55;14.40;;;6.82;;
49296;SDS011;35163;48.878;18.040;2023-06-05T02:17:23;14.48;;;6.90;;
49296;SDS011;35163;48.878;18.040;2023-06-05T02:19:51;14.57;;;7.25;;
49296;SDS011;35163;48.878;18.040;2023-06-05T02:22:18;13.95;;;6.97;;
49296;SDS011;35163;48.878;18.040;2023-06-05T02:24:44;13.23;;;6.10;;
49296;SDS011;35163;48.878;18.040;2023-06-05T02:27:11;16.35;;;7.05;;
49296;SDS011;35163;48.878;18.040;2023-06-05T02:29:39;15.57;;;6.80;;
49296;SDS011;35163;48.878;18.040;2023-06-05T02:32:05;13.27;;;5.97;;
49296;SDS011;35163;48.878;18.040;2023-06-05T02:34:32;11.50;;;5.97;;
49296;SDS011;35163;48.878;18.040;2023-06-05T02:36:59;13.50;;;6.45;;
49296;SDS011;35163;48.878;18.040;2023-06-05T02:39:27;11.55;;;6.18;;
49296;SDS011;35163;48.878;18.040;2023-06-05T02:41:54;16.98;;;6.30;;
49296;SDS011;35163;48.878;18.040;2023-06-05T02:44:22;13.27;;;6.63;;
49296;SDS011;35163;48.878;18.040;2023-06-05T02:46:48;11.60;;;6.35;;
49296;SDS011;35163;48.878;18.040;2023-06-05T02:49:15;16.52;;;6.68;;
49296;SDS011;35163;48.878;18.040;2023-06-05T02:51:42;14.43;;;6.82;;
49296;SDS011;35163;48.878;18.040;2023-06-05T02:54:11;13.73;;;6.75;;
49296;SDS011;35163;48.878;18.040;2023-06-05T02:56:38;15.88;;;7.53;;
49296;SDS011;35163;48.878;18.040;2023-06-05T02:59:05;13.75;;;6.93;;
49296;SDS011;35163;48.878;18.040;2023-06-05T03:01:31;18.95;;;7.78;;
49296;SDS011;35163;48.878;18.040;2023-06-05T03:04:01;13.75;;;7.57;;
49296;SDS011;35163;48.878;18.040;2023-06-05T03:06:28;14.38;;;7.05;;
49296;SDS011;35163;48.878;18.040;2023-06-05T03:08:59;12.95;;;6.25;;
49296;SDS011;35163;48.878;18.040;2023-06-05T03:11:29;13.75;;;7.45;;
49296;SDS011;35163;48.878;18.040;2023-06-05T03:13:56;13.73;;;6.95;;
49296;SDS011;35163;48.878;18.040;2023-06-05T03:16:22;15.98;;;7.35;;
49296;SDS011;35163;48.878;18.040;2023-06-05T03:18:50;16.30;;;7.07;;
49296;SDS011;35163;48.878;18.040;2023-06-05T03:21:17;14.45;;;7.53;;
49296;SDS011;35163;48.878;18.040;2023-06-05T03:23:46;14.95;;;7.03;;
49296;SDS011;35163;48.878;18.040;2023-06-05T03:26:12;14.77;;;7.07;;
49296;SDS011;35163;48.878;18.040;2023-06-05T03:28:39;15.60;;;7.50;;
49296;SDS011;35163;48.878;18.040;2023-06-05T03:31:06;15.25;;;7.18;;
49296;SDS011;35163;48.878;18.040;2023-06-05T03:33:33;17.00;;;7.72;;
49296;SDS011;35163;48.878;18.040;2023-06-05T03:36:00;17.92;;;7.20;;
49296;SDS011;35163;48.878;18.040;2023-06-05T03:38:26;16.67;;;7.43;;
49296;SDS011;35163;48.878;18.040;2023-06-05T03:40:53;14.55;;;7.75;;
49296;SDS011;35163;48.878;18.040;2023-06-05T03:43:20;11.75;;;6.60;;
49296;SDS011;35163;48.878;18.040;2023-06-05T03:45:47;13.60;;;7.03;;
49296;SDS011;35163;48.878;18.040;2023-06-05T03:48:15;14.73;;;7.95;;
49296;SDS011;35163;48.878;18.040;2023-06-05T03:50:42;13.57;;;7.43;;
49296;SDS011;35163;48.878;18.040;2023-06-05T03:53:08;12.82;;;7.57;;
49296;SDS011;35163;48.878;18.040;2023-06-05T03:55:36;15.80;;;8.15;;
49296;SDS011;35163;48.878;18.040;2023-06-05T03:58:12;15.73;;;8.55;;
49296;SDS011;35163;48.878;18.040;2023-06-05T04:00:43;12.27;;;7.70;;
49296;SDS011;35163;48.878;18.040;2023-06-05T04:03:17;15.25;;;7.43;;
49296;SDS011;35163;48.878;18.040;2023-06-05T04:05:44;13.88;;;7.60;;
49296;SDS011;35163;48.878;18.040;2023-06-05T04:08:11;16.90;;;7.18;;
49296;SDS011;35163;48.878;18.040;2023-06-05T04:10:38;15.60;;;8.00;;
49296;SDS011;35163;48.878;18.040;2023-06-05T04:13:06;14.93;;;6.32;;
49296;SDS011;35163;48.878;18.040;2023-06-05T04:15:34;13.52;;;5.63;;
49296;SDS011;35163;48.878;18.040;2023-06-05T04:18:01;13.10;;;5.60;;
49296;SDS011;35163;48.878;18.040;2023-06-05T04:20:28;14.07;;;5.85;;
49296;SDS011;35163;48.878;18.040;2023-06-05T04:22:55;12.13;;;5.55;;
49296;SDS011;35163;48.878;18.040;2023-06-05T04:25:21;10.85;;;5.43;;
49296;SDS011;35163;48.878;18.040;2023-06-05T04:27:48;15.70;;;5.57;;
49296;SDS011;35163;48.878;18.040;2023-06-05T04:30:16;11.27;;;5.78;;
49296;SDS011;35163;48.878;18.040;2023-06-05T04:32:43;11.57;;;6.25;;
49296;SDS011;35163;48.878;18.040;2023-06-05T04:35:22;11.68;;;5.78;;
49296;SDS011;35163;48.878;18.040;2023-06-05T04:37:49;11.48;;;5.82;;
49296;SDS011;35163;48.878;18.040;2023-06-05T04:40:17;14.18;;;6.35;;
49296;SDS011;35163;48.878;18.040;2023-06-05T04:42:47;13.57;;;6.80;;
49296;SDS011;35163;48.878;18.040;2023-06-05T04:45:14;11.38;;;5.97;;
49296;SDS011;35163;48.878;18.040;2023-06-05T04:47:43;14.70;;;6.63;;
49296;SDS011;35163;48.878;18.040;2023-06-05T04:50:20;13.50;;;6.82;;
49296;SDS011;35163;48.878;18.040;2023-06-05T04:52:50;16.75;;;6.80;;
49296;SDS011;35163;48.878;18.040;2023-06-05T04:55:17;13.48;;;6.50;;
49296;SDS011;35163;48.878;18.040;2023-06-05T04:57:44;12.75;;;6.30;;
49296;SDS011;35163;48.878;18.040;2023-06-05T05:00:11;11.88;;;6.18;;
49296;SDS011;35163;48.878;18.040;2023-06-05T05:02:38;15.38;;;6.55;;
49296;SDS011;35163;48.878;18.040;2023-06-05T05:05:05;13.40;;;5.68;;
49296;SDS011;35163;48.878;18.040;2023-06-05T05:07:32;12.38;;;6.22;;
49296;SDS011;35163;48.878;18.040;2023-06-05T05:10:02;11.80;;;5.40;;
49296;SDS011;35163;48.878;18.040;2023-06-05T05:12:29;11.60;;;5.97;;
49296;SDS011;35163;48.878;18.040;2023-06-05T05:14:59;11.45;;;5.72;;
49296;SDS011;35163;48.878;18.040;2023-06-05T05:17:25;14.00;;;6.38;;
49296;SDS011;35163;48.878;18.040;2023-06-05T05:19:52;12.10;;;6.45;;
49296;SDS011;35163;48.878;18.040;2023-06-05T05:22:19;11.95;;;5.53;;
49296;SDS011;35163;48.878;18.040;2023-06-05T05:24:46;10.75;;;5.10;;
49296;SDS011;35163;48.878;18.040;2023-06-05T05:27:12;13.43;;;6.35;;
49296;SDS011;35163;48.878;18.040;2023-06-05T05:29:39;15.02;;;5.90;;
49296;SDS011;35163;48.878;18.040;2023-06-05T05:32:06;11.43;;;5.68;;
49296;SDS011;35163;48.878;18.040;2023-06-05T05:34:33;12.70;;;5.82;;
49296;SDS011;35163;48.878;18.040;2023-06-05T05:37:00;13.07;;;6.20;;
49296;SDS011;35163;48.878;18.040;2023-06-05T05:39:27;10.75;;;5.78;;
49296;SDS011;35163;48.878;18.040;2023-06-05T05:41:54;11.50;;;5.90;;
49296;SDS011;35163;48.878;18.040;2023-06-05T05:44:21;12.82;;;6.55;;
49296;SDS011;35163;48.878;18.040;2023-06-05T05:46:47;16.27;;;7.38;;
49296;SDS011;35163;48.878;18.040;2023-06-05T05:49:14;14.15;;;7.32;;
49296;SDS011;35163;48.878;18.040;2023-06-05T05:51:41;10.95;;;6.60;;
49296;SDS011;35163;48.878;18.040;2023-06-05T05:54:07;16.42;;;8.80;;
49296;SDS011;35163;48.878;18.040;2023-06-05T05:56:34;12.65;;;7.20;;
49296;SDS011;35163;48.878;18.040;2023-06-05T05:59:05;12.50;;;6.20;;
49296;SDS011;35163;48.878;18.040;2023-06-05T06:01:34;14.07;;;6.75;;
49296;SDS011;35163;48.878;18.040;2023-06-05T06:04:02;17.13;;;6.38;;
49296;SDS011;35163;48.878;18.040;2023-06-05T06:06:32;14.18;;;6.38;;
49296;SDS011;35163;48.878;18.040;2023-06-05T06:08:59;14.20;;;6.07;;
49296;SDS011;35163;48.878;18.040;2023-06-05T06:11:28;12.63;;;5.75;;
49296;SDS011;35163;48.878;18.040;2023-06-05T06:13:55;11.18;;;5.38;;
49296;SDS011;35163;48.878;18.040;2023-06-05T06:16:21;10.40;;;5.75;;
49296;SDS011;35163;48.878;18.040;2023-06-05T06:18:51;9.70;;;5.07;;
49296;SDS011;35163;48.878;18.040;2023-06-05T06:21:18;11.77;;;5.60;;
49296;SDS011;35163;48.878;18.040;2023-06-05T06:23:45;11.38;;;5.70;;
49296;SDS011;35163;48.878;18.040;2023-06-05T06:26:12;11.07;;;5.68;;
49296;SDS011;35163;48.878;18.040;2023-06-05T06:28:41;14.25;;;6.10;;
49296;SDS011;35163;48.878;18.040;2023-06-05T06:31:08;15.27;;;6.18;;
49296;SDS011;35163;48.878;18.040;2023-06-05T06:33:36;15.35;;;6.32;;
49296;SDS011;35163;48.878;18.040;2023-06-05T06:36:04;13.90;;;5.72;;
49296;SDS011;35163;48.878;18.040;2023-06-05T06:38:31;11.23;;;4.90;;
49296;SDS011;35163;48.878;18.040;2023-06-05T06:40:58;12.50;;;5.18;;
49296;SDS011;35163;48.878;18.040;2023-06-05T06:43:25;12.57;;;5.10;;
49296;SDS011;35163;48.878;18.040;2023-06-05T06:45:54;11.18;;;5.43;;
49296;SDS011;35163;48.878;18.040;2023-06-05T06:48:21;11.45;;;5.28;;
49296;SDS011;35163;48.878;18.040;2023-06-05T06:50:50;13.07;;;5.22;;
49296;SDS011;35163;48.878;18.040;2023-06-05T06:53:17;10.18;;;5.20;;
49296;SDS011;35163;48.878;18.040;2023-06-05T06:55:44;9.82;;;4.82;;
49296;SDS011;35163;48.878;18.040;2023-06-05T06:58:11;11.80;;;5.45;;
49296;SDS011;35163;48.878;18.040;2023-06-05T07:00:37;15.25;;;5.88;;
49296;SDS011;35163;48.878;18.040;2023-06-05T07:03:05;10.23;;;4.60;;
49296;SDS011;35163;48.878;18.040;2023-06-05T07:05:32;13.57;;;5.70;;
49296;SDS011;35163;48.878;18.040;2023-06-05T07:07:58;15.55;;;5.93;;
49296;SDS011;35163;48.878;18.040;2023-06-05T07:10:28;12.10;;;5.05;;
49296;SDS011;35163;48.878;18.040;2023-06-05T07:12:55;14.23;;;5.70;;
49296;SDS011;35163;48.878;18.040;2023-06-05T07:15:22;17.35;;;5.80;;
49296;SDS011;35163;48.878;18.040;2023-06-05T07:17:49;13.13;;;5.60;;
49296;SDS011;35163;48.878;18.040;2023-06-05T07:20:16;13.82;;;5.65;;
49296;SDS011;35163;48.878;18.040;2023-06-05T07:22:44;11.88;;;5.20;;
49296;SDS011;35163;48.878;18.040;2023-06-05T07:25:13;14.70;;;5.45;;
49296;SDS011;35163;48.878;18.040;2023-06-05T07:27:43;11.88;;;5.70;;
49296;SDS011;35163;48.878;18.040;2023-06-05T07:30:10;13.15;;;6.47;;
49296;SDS011;35163;48.878;18.040;2023-06-05T07:32:38;11.73;;;5.82;;
49296;SDS011;35163;48.878;18.040;2023-06-05T07:35:07;12.93;;;5.38;;
49296;SDS011;35163;48.878;18.040;2023-06-05T07:37:34;11.73;;;5.13;;
49296;SDS011;35163;48.878;18.040;2023-06-05T07:40:01;9.77;;;5.22;;
49296;SDS011;35163;48.878;18.040;2023-06-05T07:42:29;11.55;;;5.82;;
49296;SDS011;35163;48.878;18.040;2023-06-05T07:44:56;12.20;;;5.07;;
49296;SDS011;35163;48.878;18.040;2023-06-05T07:47:22;13.80;;;5.28;;
49296;SDS011;35163;48.878;18.040;2023-06-05T07:49:56;13.65;;;5.95;;
49296;SDS011;35163;48.878;18.040;2023-06-05T07:52:27;12.77;;;5.40;;
49296;SDS011;35163;48.878;18.040;2023-06-05T07:54:53;13.02;;;5.60;;
49296;SDS011;35163;48.878;18.040;2023-06-05T07:57:20;15.02;;;5.97;;
49296;SDS011;35163;48.878;18.040;2023-06-05T07:59:47;11.50;;;5.43;;
49296;SDS011;35163;48.878;18.040;2023-06-05T08:02:15;11.65;;;5.63;;
49296;SDS011;35163;48.878;18.040;2023-06-05T08:04:43;11.85;;;5.68;;
49296;SDS011;35163;48.878;18.040;2023-06-05T08:07:12;13.30;;;5.68;;
49296;SDS011;35163;48.878;18.040;2023-06-05T08:09:40;12.02;;;5.93;;
49296;SDS011;35163;48.878;18.040;2023-06-05T08:12:07;15.35;;;6.63;;
49296;SDS011;35163;48.878;18.040;2023-06-05T08:14:34;13.95;;;6.50;;
49296;SDS011;35163;48.878;18.040;2023-06-05T08:17:01;13.05;;;6.22;;
49296;SDS011;35163;48.878;18.040;2023-06-05T08:19:28;11.18;;;5.97;;
49296;SDS011;35163;48.878;18.040;2023-06-05T08:21:55;11.10;;;5.55;;
49296;SDS011;35163;48.878;18.040;2023-06-05T08:24:23;12.10;;;6.25;;
49296;SDS011;35163;48.878;18.040;2023-06-05T08:26:49;12.05;;;5.82;;
49296;SDS011;35163;48.878;18.040;2023-06-05T08:29:19;15.75;;;6.20;;
49296;SDS011;35163;48.878;18.040;2023-06-05T08:31:46;13.80;;;6.60;;
49296;SDS011;35163;48.878;18.040;2023-06-05T08:34:12;14.75;;;7.25;;
49296;SDS011;35163;48.878;18.040;2023-06-05T08:36:39;14.05;;;6.57;;
49296;SDS011;35163;48.878;18.040;2023-06-05T08:39:06;13.38;;;6.90;;
49296;SDS011;35163;48.878;18.040;2023-06-05T08:41:32;14.18;;;5.95;;
49296;SDS011;35163;48.878;18.040;2023-06-05T08:44:02;10.60;;;5.38;;
49296;SDS011;35163;48.878;18.040;2023-06-05T08:46:29;11.60;;;5.70;;
49296;SDS011;35163;48.878;18.040;2023-06-05T08:48:57;12.65;;;5.53;;
49296;SDS011;35163;48.878;18.040;2023-06-05T08:51:26;13.98;;;5.20;;
49296;SDS011;35163;48.878;18.040;2023-06-05T08:54:03;12.25;;;5.50;;
49296;SDS011;35163;48.878;18.040;2023-06-05T08:56:31;12.52;;;5.70;;
49296;SDS011;35163;48.878;18.040;2023-06-05T08:58:58;11.52;;;5.82;;
49296;SDS011;35163;48.878;18.040;2023-06-05T09:01:26;13.48;;;5.65;;
49296;SDS011;35163;48.878;18.040;2023-06-05T09:03:53;13.18;;;6.18;;
49296;SDS011;35163;48.878;18.040;2023-06-05T09:06:20;12.45;;;5.63;;
49296;SDS011;35163;48.878;18.040;2023-06-05T09:08:46;13.48;;;6.10;;
49296;SDS011;35163;48.878;18.040;2023-06-05T09:13:49;18.83;;;5.70;;
49296;SDS011;35163;48.878;18.040;2023-06-05T09:16:19;12.68;;;6.43;;
49296;SDS011;35163;48.878;18.040;2023-06-05T09:18:51;10.35;;;5.07;;
49296;SDS011;35163;48.878;18.040;2023-06-05T09:21:21;11.27;;;5.75;;
49296;SDS011;35163;48.878;18.040;2023-06-05T09:26:45;11.07;;;5.75;;
49296;SDS011;35163;48.878;18.040;2023-06-05T09:29:26;13.48;;;5.60;;
49296;SDS011;35163;48.878;18.040;2023-06-05T09:31:55;11.35;;;5.38;;
49296;SDS011;35163;48.878;18.040;2023-06-05T09:34:27;14.38;;;5.88;;
49296;SDS011;35163;48.878;18.040;2023-06-05T09:39:29;10.82;;;5.28;;
49296;SDS011;35163;48.878;18.040;2023-06-05T09:42:00;12.73;;;6.05;;
49296;SDS011;35163;48.878;18.040;2023-06-05T09:44:27;11.68;;;6.75;;
49296;SDS011;35163;48.878;18.040;2023-06-05T09:46:56;14.93;;;5.05;;
49296;SDS011;35163;48.878;18.040;2023-06-05T09:49:25;12.30;;;5.30;;
49296;SDS011;35163;48.878;18.040;2023-06-05T09:51:58;10.82;;;5.53;;
49296;SDS011;35163;48.878;18.040;2023-06-05T09:54:27;11.05;;;5.28;;
49296;SDS011;35163;48.878;18.040;2023-06-05T09:56:56;11.40;;;5.63;;
49296;SDS011;35163;48.878;18.040;2023-06-05T09:59:26;12.82;;;5.30;;
49296;SDS011;35163;48.878;18.040;2023-06-05T10:01:56;15.15;;;5.47;;
49296;SDS011;35163;48.878;18.040;2023-06-05T10:04:25;14.20;;;5.28;;
49296;SDS011;35163;48.878;18.040;2023-06-05T10:06:54;11.88;;;5.50;;
49296;SDS011;35163;48.878;18.040;2023-06-05T10:09:29;12.00;;;5.40;;
49296;SDS011;35163;48.878;18.040;2023-06-05T10:11:59;11.25;;;5.85;;
49296;SDS011;35163;48.878;18.040;2023-06-05T10:14:26;11.90;;;5.60;;
49296;SDS011;35163;48.878;18.040;2023-06-05T10:16:53;13.80;;;5.93;;
49296;SDS011;35163;48.878;18.040;2023-06-05T10:19:22;12.57;;;6.30;;
49296;SDS011;35163;48.878;18.040;2023-06-05T10:21:53;10.18;;;5.20;;
49296;SDS011;35163;48.878;18.040;2023-06-05T10:24:20;12.85;;;5.53;;
49296;SDS011;35163;48.878;18.040;2023-06-05T10:31:58;10.98;;;5.20;;
49296;SDS011;35163;48.878;18.040;2023-06-05T10:34:44;10.98;;;5.00;;
49296;SDS011;35163;48.878;18.040;2023-06-05T10:37:30;10.65;;;5.18;;
49296;SDS011;35163;48.878;18.040;2023-06-05T10:40:17;12.75;;;5.15;;
49296;SDS011;35163;48.878;18.040;2023-06-05T10:42:44;11.85;;;5.18;;
49296;SDS011;35163;48.878;18.040;2023-06-05T10:45:11;11.85;;;5.57;;
49296;SDS011;35163;48.878;18.040;2023-06-05T10:52:45;12.55;;;5.53;;
49296;SDS011;35163;48.878;18.040;2023-06-05T10:55:12;14.90;;;6.72;;
49296;SDS011;35163;48.878;18.040;2023-06-05T11:00:27;10.18;;;5.22;;
49296;SDS011;35163;48.878;18.040;2023-06-05T11:02:57;13.43;;;5.78;;
49296;SDS011;35163;48.878;18.040;2023-06-05T11:05:27;15.23;;;6.38;;
49296;SDS011;35163;48.878;18.040;2023-06-05T11:10:36;12.05;;;5.55;;
49296;SDS011;35163;48.878;18.040;2023-06-05T11:13:02;16.33;;;5.93;;
49296;SDS011;35163;48.878;18.040;2023-06-05T11:15:39;27.17;;;6.88;;
49296;SDS011;35163;48.878;18.040;2023-06-05T11:18:26;11.95;;;6.20;;
49296;SDS011;35163;48.878;18.040;2023-06-05T11:21:02;15.68;;;6.68;;
49296;SDS011;35163;48.878;18.040;2023-06-05T11:23:29;16.88;;;7.15;;
49296;SDS011;35163;48.878;18.040;2023-06-05T11:25:56;11.10;;;5.72;;
49296;SDS011;35163;48.878;18.040;2023-06-05T11:28:37;12.77;;;5.72;;
49296;SDS011;35163;48.878;18.040;2023-06-05T11:31:05;10.73;;;5.72;;
49296;SDS011;35163;48.878;18.040;2023-06-05T11:33:32;15.40;;;5.90;;
49296;SDS011;35163;48.878;18.040;2023-06-05T11:35:59;11.82;;;5.40;;
49296;SDS011;35163;48.878;18.040;2023-06-05T11:38:34;12.50;;;5.35;;
49296;SDS011;35163;48.878;18.040;2023-06-05T11:41:04;12.10;;;6.53;;
49296;SDS011;35163;48.878;18.040;2023-06-05T11:43:33;13.95;;;5.68;;
49296;SDS011;35163;48.878;18.040;2023-06-05T11:46:07;10.90;;;5.57;;
49296;SDS011;35163;48.878;18.040;2023-06-05T11:48:34;10.07;;;5.05;;
49296;SDS011;35163;48.878;18.040;2023-06-05T11:51:02;18.33;;;6.30;;
49296;SDS011;35163;48.878;18.040;2023-06-05T11:53:30;9.90;;;5.32;;
49296;SDS011;35163;48.878;18.040;2023-06-05T11:55:58;11.43;;;5.18;;
49296;SDS011;35163;48.878;18.040;2023-06-05T11:58:31;11.00;;;5.45;;
49296;SDS011;35163;48.878;18.040;2023-06-05T12:01:05;10.23;;;4.82;;
49296;SDS011;35163;48.878;18.040;2023-06-05T12:03:41;12.77;;;5.20;;
49296;SDS011;35163;48.878;18.040;2023-06-05T12:06:08;8.52;;;5.05;;
49296;SDS011;35163;48.878;18.040;2023-06-05T12:08:36;10.73;;;4.88;;
49296;SDS011;35163;48.878;18.040;2023-06-05T12:11:03;12.77;;;5.05;;
49296;SDS011;35163;48.878;18.040;2023-06-05T12:13:45;13.48;;;5.53;;
49296;SDS011;35163;48.878;18.040;2023-06-05T12:16:17;11.27;;;6.07;;
49296;SDS011;35163;48.878;18.040;2023-06-05T12:18:47;12.63;;;7.05;;
49296;SDS011;35163;48.878;18.040;2023-06-05T12:21:31;16.48;;;6.00;;
49296;SDS011;35163;48.878;18.040;2023-06-05T12:24:01;9.20;;;4.90;;
49296;SDS011;35163;48.878;18.040;2023-06-05T12:26:35;10.95;;;4.75;;
49296;SDS011;35163;48.878;18.040;2023-06-05T12:31:42;10.32;;;4.22;;
49296;SDS011;35163;48.878;18.040;2023-06-05T12:34:09;9.25;;;4.60;;
49296;SDS011;35163;48.878;18.040;2023-06-05T12:36:39;9.48;;;4.72;;
49296;SDS011;35163;48.878;18.040;2023-06-05T12:39:10;11.77;;;4.93;;
49296;SDS011;35163;48.878;18.040;2023-06-05T12:41:37;12.00;;;5.00;;
49296;SDS011;35163;48.878;18.040;2023-06-05T12:44:05;10.07;;;4.68;;
49296;SDS011;35163;48.878;18.040;2023-06-05T12:46:34;10.27;;;5.20;;
49296;SDS011;35163;48.878;18.040;2023-06-05T12:49:03;8.23;;;4.07;;
49296;SDS011;35163;48.878;18.040;2023-06-05T12:51:33;9.27;;;4.72;;
49296;SDS011;35163;48.878;18.040;2023-06-05T12:54:00;9.90;;;5.15;;
49296;SDS011;35163;48.878;18.040;2023-06-05T12:56:27;15.23;;;6.45;;
49296;SDS011;35163;48.878;18.040;2023-06-05T12:58:56;11.73;;;7.00;;
49296;SDS011;35163;48.878;18.040;2023-06-05T13:01:26;11.45;;;5.88;;
49296;SDS011;35163;48.878;18.040;2023-06-05T13:03:55;13.27;;;5.70;;
49296;SDS011;35163;48.878;18.040;2023-06-05T13:06:22;12.25;;;5.03;;
49296;SDS011;35163;48.878;18.040;2023-06-05T13:08:49;11.70;;;4.65;;
49296;SDS011;35163;48.878;18.040;2023-06-05T13:11:17;11.27;;;5.30;;
49296;SDS011;35163;48.878;18.040;2023-06-05T13:13:43;8.82;;;4.07;;
49296;SDS011;35163;48.878;18.040;2023-06-05T13:16:10;9.48;;;4.45;;
49296;SDS011;35163;48.878;18.040;2023-06-05T13:18:38;10.63;;;4.80;;
49296;SDS011;35163;48.878;18.040;2023-06-05T13:21:05;7.93;;;4.28;;
49296;SDS011;35163;48.878;18.040;2023-06-05T13:23:32;15.35;;;4.82;;
49296;SDS011;35163;48.878;18.040;2023-06-05T13:26:01;13.75;;;5.00;;
49296;SDS011;35163;48.878;18.040;2023-06-05T13:28:29;10.20;;;4.50;;
49296;SDS011;35163;48.878;18.040;2023-06-05T13:30:56;12.48;;;4.05;;
49296;SDS011;35163;48.878;18.040;2023-06-05T13:33:23;13.35;;;4.82;;
49296;SDS011;35163;48.878;18.040;2023-06-05T13:35:52;10.15;;;4.53;;
49296;SDS011;35163;48.878;18.040;2023-06-05T13:38:20;8.60;;;4.70;;
49296;SDS011;35163;48.878;18.040;2023-06-05T13:40:48;9.50;;;4.78;;
49296;SDS011;35163;48.878;18.040;2023-06-05T13:43:18;11.50;;;5.05;;
49296;SDS011;35163;48.878;18.040;2023-06-05T13:45:45;11.18;;;5.10;;
49296;SDS011;35163;48.878;18.040;2023-06-05T13:48:12;8.70;;;4.30;;
49296;SDS011;35163;48.878;18.040;2023-06-05T13:50:39;14.05;;;4.75;;
49296;SDS011;35163;48.878;18.040;2023-06-05T13:53:06;8.80;;;4.70;;
49296;SDS011;35163;48.878;18.040;2023-06-05T13:55:32;8.85;;;5.00;;
49296;SDS011;35163;48.878;18.040;2023-06-05T13:57:59;8.80;;;4.80;;
49296;SDS011;35163;48.878;18.040;2023-06-05T14:00:28;9.45;;;4.80;;
49296;SDS011;35163;48.878;18.040;2023-06-05T14:02:56;12.05;;;5.03;;
49296;SDS011;35163;48.878;18.040;2023-06-05T14:05:24;11.50;;;5.20;;
49296;SDS011;35163;48.878;18.040;2023-06-05T14:07:52;9.68;;;4.63;;
49296;SDS011;35163;48.878;18.040;2023-06-05T14:10:20;8.35;;;4.70;;
49296;SDS011;35163;48.878;18.040;2023-06-05T14:12:49;12.38;;;5.30;;
49296;SDS011;35163;48.878;18.040;2023-06-05T14:15:17;13.85;;;5.25;;
49296;SDS011;35163;48.878;18.040;2023-06-05T14:17:45;10.60;;;5.07;;
49296;SDS011;35163;48.878;18.040;2023-06-05T14:20:13;16.05;;;5.50;;
49296;SDS011;35163;48.878;18.040;2023-06-05T14:22:40;13.60;;;5.15;;
49296;SDS011;35163;48.878;18.040;2023-06-05T14:25:07;12.30;;;5.57;;
49296;SDS011;35163;48.878;18.040;2023-06-05T14:27:36;12.13;;;5.45;;
49296;SDS011;35163;48.878;18.040;2023-06-05T14:30:04;11.80;;;6.00;;
49296;SDS011;35163;48.878;18.040;2023-06-05T14:32:31;9.70;;;4.90;;
49296;SDS011;35163;48.878;18.040;2023-06-05T14:34:58;11.60;;;4.85;;
49296;SDS011;35163;48.878;18.040;2023-06-05T14:37:24;11.93;;;4.53;;
49296;SDS011;35163;48.878;18.040;2023-06-05T14:39:54;9.85;;;4.95;;
49296;SDS011;35163;48.878;18.040;2023-06-05T14:42:21;11.55;;;5.18;;
49296;SDS011;35163;48.878;18.040;2023-06-05T14:44:49;15.07;;;5.97;;
49296;SDS011;35163;48.878;18.040;2023-06-05T14:47:16;18.20;;;8.70;;
49296;SDS011;35163;48.878;18.040;2023-06-05T14:49:43;28.95;;;12.63;;
49296;SDS011;35163;48.878;18.040;2023-06-05T14:52:10;31.02;;;14.40;;
49296;SDS011;35163;48.878;18.040;2023-06-05T14:54:36;29.90;;;13.77;;
49296;SDS011;35163;48.878;18.040;2023-06-05T14:57:03;20.67;;;7.82;;
49296;SDS011;35163;48.878;18.040;2023-06-05T14:59:30;18.38;;;7.75;;
49296;SDS011;35163;48.878;18.040;2023-06-05T15:01:57;14.27;;;5.82;;